createdAt,value
2024-05-09T00:00:41.984Z,4.90
2024-05-09T00:03:29.068Z,4.60
2024-05-09T00:05:55.920Z,5.10
2024-05-09T00:08:23.423Z,6.70
2024-05-09T00:10:50.308Z,4.90
2024-05-09T00:13:17.044Z,4.90
2024-05-09T00:15:43.753Z,4.30
2024-05-09T00:18:10.587Z,5.90
2024-05-09T00:20:40.484Z,5.10
2024-05-09T00:23:13.236Z,3.80
2024-05-09T00:25:44.423Z,8.20
2024-05-09T00:28:12.382Z,4.10
2024-05-09T00:30:40.133Z,4.20
2024-05-09T00:33:08.982Z,5.90
2024-05-09T00:35:37.285Z,4.70
2024-05-09T00:38:04.655Z,4.10
2024-05-09T00:40:42.884Z,5.00
2024-05-09T00:43:12.195Z,4.10
2024-05-09T00:45:40.052Z,5.00
2024-05-09T00:48:08.935Z,4.00
2024-05-09T00:50:40.075Z,3.00
2024-05-09T00:53:10.255Z,3.80
2024-05-09T00:55:38.168Z,6.80
2024-05-09T00:58:07.101Z,3.40
2024-05-09T01:00:39.080Z,3.20
2024-05-09T01:03:10.494Z,3.00
2024-05-09T01:05:39.769Z,3.50
2024-05-09T01:08:07.824Z,2.80
2024-05-09T01:10:36.398Z,3.20
2024-05-09T01:13:04.464Z,3.80
2024-05-09T01:15:32.227Z,4.40
2024-05-09T01:18:03.405Z,4.60
2024-05-09T01:20:39.675Z,3.00
2024-05-09T01:23:10.551Z,3.10
2024-05-09T01:25:37.442Z,3.00
2024-05-09T01:28:05.247Z,2.20
2024-05-09T01:30:35.472Z,2.70
2024-05-09T01:33:06.831Z,2.10
2024-05-09T01:35:35.452Z,3.80
2024-05-09T01:38:02.507Z,4.80
2024-05-09T01:40:37.128Z,4.00
2024-05-09T01:43:07.905Z,2.20
2024-05-09T01:45:34.940Z,2.10
2024-05-09T01:48:02.430Z,7.80
2024-05-09T01:50:37.927Z,2.10
2024-05-09T01:53:09.675Z,1.10
2024-05-09T01:55:37.052Z,0.70
2024-05-09T01:58:04.002Z,2.50
2024-05-09T02:00:38.324Z,1.30
2024-05-09T02:03:11.548Z,1.50
2024-05-09T02:05:41.845Z,1.50
2024-05-09T02:08:16.080Z,1.00
2024-05-09T02:10:43.797Z,2.80
2024-05-09T02:13:10.751Z,1.80
2024-05-09T02:15:37.592Z,1.40
2024-05-09T02:18:05.084Z,1.40
2024-05-09T02:20:36.277Z,4.60
2024-05-09T02:23:05.560Z,1.20
2024-05-09T02:25:33.010Z,3.40
2024-05-09T02:28:00.013Z,3.10
2024-05-09T02:30:36.567Z,1.90
2024-05-09T02:33:08.688Z,1.80
2024-05-09T02:35:36.524Z,1.20
2024-05-09T02:38:03.804Z,2.40
2024-05-09T02:40:36.761Z,1.90
2024-05-09T02:43:07.214Z,1.40
2024-05-09T02:45:34.296Z,2.60
2024-05-09T02:48:02.052Z,2.70
2024-05-09T02:50:36.696Z,2.20
2024-05-09T02:53:13.295Z,2.60
2024-05-09T02:55:40.926Z,2.40
2024-05-09T02:58:08.252Z,3.00
2024-05-09T03:00:39.756Z,3.00
2024-05-09T03:03:11.588Z,2.10
2024-05-09T03:05:41.475Z,1.80
2024-05-09T03:08:08.872Z,3.70
2024-05-09T03:10:38.232Z,6.20
2024-05-09T03:13:11.050Z,2.40
2024-05-09T03:15:37.833Z,1.80
2024-05-09T03:18:05.938Z,4.60
2024-05-09T03:20:35.471Z,4.50
2024-05-09T03:23:04.718Z,1.30
2024-05-09T03:25:31.992Z,1.90
2024-05-09T03:27:58.769Z,4.10
2024-05-09T03:30:36.090Z,1.50
2024-05-09T03:33:13.358Z,1.40
2024-05-09T03:35:42.256Z,1.70
2024-05-09T03:38:09.285Z,1.50
2024-05-09T03:40:43.287Z,1.90
2024-05-09T03:43:09.989Z,2.30
2024-05-09T03:45:36.652Z,2.20
2024-05-09T03:48:03.782Z,1.60
2024-05-09T03:50:35.420Z,1.30
2024-05-09T03:53:03.852Z,1.40
2024-05-09T03:55:31.240Z,2.00
2024-05-09T03:57:58.288Z,1.70
2024-05-09T04:00:31.574Z,3.40
2024-05-09T04:03:07.016Z,1.80
2024-05-09T04:05:37.168Z,1.60
2024-05-09T04:08:05.376Z,3.10
2024-05-09T04:10:34.216Z,2.40
2024-05-09T04:13:03.466Z,2.30
2024-05-09T04:15:30.974Z,2.10
2024-05-09T04:17:58.025Z,2.30
2024-05-09T04:20:35.836Z,2.80
2024-05-09T04:23:08.264Z,1.60
2024-05-09T04:25:36.696Z,3.10
2024-05-09T04:28:03.767Z,2.00
2024-05-09T04:30:37.160Z,3.50
2024-05-09T04:33:09.351Z,1.80
2024-05-09T04:35:38.818Z,2.50
2024-05-09T04:38:06.165Z,2.80
2024-05-09T04:40:36.188Z,2.30
2024-05-09T04:43:05.823Z,1.50
2024-05-09T04:45:33.017Z,1.80
2024-05-09T04:48:00.406Z,1.90
2024-05-09T04:50:36.040Z,1.40
2024-05-09T04:53:08.501Z,1.50
2024-05-09T04:55:36.948Z,1.40
2024-05-09T04:58:04.847Z,0.90
2024-05-09T05:00:36.819Z,1.20
2024-05-09T05:03:09.350Z,1.60
2024-05-09T05:05:39.827Z,2.30
2024-05-09T05:08:14.264Z,1.00
2024-05-09T05:10:42.956Z,1.90
2024-05-09T05:13:24.179Z,2.20
2024-05-09T05:15:54.790Z,1.70
2024-05-09T05:18:21.747Z,1.30
2024-05-09T05:20:48.999Z,1.10
2024-05-09T05:23:19.305Z,1.80
2024-05-09T05:25:47.996Z,2.10
2024-05-09T05:28:15.959Z,4.20
2024-05-09T05:30:42.842Z,3.80
2024-05-09T05:33:12.378Z,4.40
2024-05-09T05:35:42.779Z,5.30
2024-05-09T05:38:10.517Z,5.00
2024-05-09T05:40:38.884Z,8.30
2024-05-09T05:43:09.121Z,6.00
2024-05-09T05:45:36.108Z,5.40
2024-05-09T05:48:04.229Z,5.50
2024-05-09T05:50:36.009Z,2.60
2024-05-09T05:53:06.120Z,1.80
2024-05-09T05:55:33.145Z,1.70
2024-05-09T05:58:01.410Z,1.40
2024-05-09T06:00:34.754Z,2.00
2024-05-09T06:03:05.425Z,0.60
2024-05-09T06:05:33.024Z,1.30
2024-05-09T06:08:00.215Z,1.40
2024-05-09T06:10:37.000Z,1.30
2024-05-09T06:13:09.625Z,1.10
2024-05-09T06:15:36.331Z,1.20
2024-05-09T06:18:05.883Z,0.90
2024-05-09T06:20:36.528Z,2.00
2024-05-09T06:25:32.479Z,2.70
2024-05-09T06:28:02.972Z,1.00
2024-05-09T06:30:38.330Z,1.00
2024-05-09T06:33:10.414Z,2.50
2024-05-09T06:35:38.877Z,0.80
2024-05-09T06:38:08.175Z,1.80
2024-05-09T06:40:38.450Z,1.60
2024-05-09T06:43:11.110Z,1.10
2024-05-09T06:45:38.986Z,2.20
2024-05-09T06:48:06.934Z,2.10
2024-05-09T06:50:37.843Z,3.40
2024-05-09T06:55:36.660Z,1.30
2024-05-09T06:58:05.615Z,2.10
2024-05-09T07:00:38.790Z,7.70
2024-05-09T07:03:13.669Z,1.40
2024-05-09T07:06:07.013Z,2.80
2024-05-09T07:08:34.100Z,1.50
2024-05-09T07:11:01.048Z,3.40
2024-05-09T07:13:27.939Z,1.80
2024-05-09T07:15:54.602Z,1.00
2024-05-09T07:18:21.578Z,2.10
2024-05-09T07:20:49.836Z,2.90
2024-05-09T07:23:17.979Z,2.00
2024-05-09T07:25:44.826Z,2.80
2024-05-09T07:28:16.906Z,1.90
2024-05-09T07:33:18.740Z,1.10
2024-05-09T07:35:46.198Z,1.50
2024-05-09T07:38:13.537Z,1.40
2024-05-09T07:40:40.967Z,1.30
2024-05-09T07:43:13.477Z,3.40
2024-05-09T07:45:50.405Z,1.30
2024-05-09T07:52:37.677Z,0.90
2024-05-09T07:53:47.595Z,1.20
2024-05-09T07:56:19.579Z,0.80
2024-05-09T07:58:49.972Z,1.20
2024-05-09T08:01:16.861Z,0.50
2024-05-09T08:03:44.693Z,3.40
2024-05-09T08:06:11.750Z,2.10
2024-05-09T08:08:38.469Z,1.30
2024-05-09T08:11:05.754Z,0.70
2024-05-09T08:13:32.539Z,2.10
2024-05-09T08:15:59.368Z,2.20
2024-05-09T08:18:26.295Z,1.30
2024-05-09T08:20:53.220Z,1.10
2024-05-09T08:23:20.036Z,2.50
2024-05-09T08:25:47.321Z,1.70
2024-05-09T08:28:14.637Z,1.50
2024-05-09T08:30:42.244Z,2.50
2024-05-09T08:33:09.407Z,1.60
2024-05-09T08:35:37.561Z,0.90
2024-05-09T08:38:06.665Z,1.50
2024-05-09T08:40:37.020Z,0.70
2024-05-09T08:43:08.182Z,0.60
2024-05-09T08:45:37.750Z,2.20
2024-05-09T08:48:08.408Z,3.40
2024-05-09T08:50:40.168Z,1.70
2024-05-09T08:55:38.133Z,1.40
2024-05-09T08:58:09.829Z,2.10
2024-05-09T09:00:39.432Z,2.40
2024-05-09T09:03:10.702Z,1.20
2024-05-09T09:05:40.082Z,2.40
2024-05-09T09:08:08.044Z,0.80
2024-05-09T09:10:37.303Z,1.20
2024-05-09T09:13:06.352Z,1.20
2024-05-09T09:15:33.358Z,2.00
2024-05-09T09:18:00.934Z,1.90
2024-05-09T09:20:36.263Z,1.10
2024-05-09T09:23:04.560Z,0.90
2024-05-09T09:25:31.908Z,0.90
2024-05-09T09:27:59.214Z,1.50
2024-05-09T09:30:36.389Z,2.60
2024-05-09T09:33:06.458Z,1.40
2024-05-09T09:35:35.382Z,2.20
2024-05-09T09:38:03.724Z,1.60
2024-05-09T09:40:36.128Z,1.80
2024-05-09T09:43:13.288Z,2.00
2024-05-09T09:45:42.569Z,2.30
2024-05-09T09:48:10.036Z,0.90
2024-05-09T09:50:38.804Z,1.60
2024-05-09T09:53:07.143Z,2.00
2024-05-09T09:55:34.933Z,1.70
2024-05-09T09:58:03.645Z,1.50
2024-05-09T10:00:33.427Z,1.30
2024-05-09T10:03:01.879Z,1.20
2024-05-09T10:05:29.566Z,1.00
2024-05-09T10:07:57.854Z,1.70
2024-05-09T10:10:31.800Z,1.60
2024-05-09T10:13:03.186Z,1.00
2024-05-09T10:15:52.928Z,1.50
2024-05-09T10:18:34.117Z,3.80
2024-05-09T10:21:01.304Z,2.80
2024-05-09T10:23:30.363Z,1.60
2024-05-09T10:26:02.327Z,1.80
2024-05-09T10:28:30.940Z,2.40
2024-05-09T10:31:08.137Z,3.00
2024-05-09T10:33:36.874Z,2.80
2024-05-09T10:36:11.125Z,3.50
2024-05-09T10:38:39.733Z,1.40
2024-05-09T10:41:07.783Z,1.90
2024-05-09T10:43:39.210Z,2.00
2024-05-09T10:46:06.930Z,2.60
2024-05-09T10:48:35.249Z,1.70
2024-05-09T10:51:02.887Z,1.50
2024-05-09T10:53:43.322Z,1.80
2024-05-09T10:56:12.782Z,3.70
2024-05-09T10:58:39.462Z,4.10
2024-05-09T11:01:07.665Z,4.70
2024-05-09T11:03:35.894Z,2.10
2024-05-09T11:06:03.683Z,3.90
2024-05-09T11:08:31.817Z,5.40
2024-05-09T11:10:59.488Z,2.40
2024-05-09T11:13:28.047Z,2.30
2024-05-09T11:15:55.091Z,2.20
2024-05-09T11:18:25.354Z,3.70
2024-05-09T11:20:55.038Z,3.80
2024-05-09T11:23:25.319Z,3.40
2024-05-09T11:25:56.673Z,3.70
2024-05-09T11:28:27.423Z,2.50
2024-05-09T11:31:05.853Z,3.30
2024-05-09T11:33:36.857Z,4.30
2024-05-09T11:36:06.266Z,3.00
2024-05-09T11:38:33.122Z,2.30
2024-05-09T11:40:59.912Z,4.90
2024-05-09T11:43:26.642Z,2.60
2024-05-09T11:45:54.676Z,4.30
2024-05-09T11:48:21.585Z,2.70
2024-05-09T11:50:48.512Z,3.00
2024-05-09T11:53:15.311Z,3.00
2024-05-09T11:55:42.066Z,4.50
2024-05-09T11:58:09.072Z,2.70
2024-05-09T12:00:37.607Z,2.50
2024-05-09T12:03:05.992Z,3.80
2024-05-09T12:05:34.025Z,2.30
2024-05-09T12:08:01.868Z,2.50
2024-05-09T12:10:33.510Z,2.20
2024-05-09T12:13:03.130Z,2.20
2024-05-09T12:15:31.084Z,1.70
2024-05-09T12:18:00.218Z,3.00
2024-05-09T12:20:36.451Z,2.00
2024-05-09T12:23:08.023Z,3.20
2024-05-09T12:25:36.416Z,2.30
2024-05-09T12:28:03.606Z,2.30
2024-05-09T12:30:36.641Z,1.80
2024-05-09T12:33:11.573Z,4.60
2024-05-09T12:35:39.932Z,5.80
2024-05-09T12:38:06.707Z,2.70
2024-05-09T12:40:37.052Z,3.10
2024-05-09T12:45:32.895Z,3.00
2024-05-09T12:48:00.004Z,2.50
2024-05-09T12:50:32.439Z,2.80
2024-05-09T12:53:02.104Z,3.90
2024-05-09T12:55:34.188Z,4.60
2024-05-09T12:58:08.127Z,2.90
2024-05-09T13:00:35.272Z,2.80
2024-05-09T13:03:02.397Z,3.10
2024-05-09T13:05:29.810Z,4.20
2024-05-09T13:07:57.243Z,2.60
2024-05-09T13:10:31.105Z,4.90
2024-05-09T13:13:01.683Z,2.40
2024-05-09T13:15:30.242Z,3.30
2024-05-09T13:18:00.267Z,3.40
2024-05-09T13:20:33.657Z,4.80
2024-05-09T13:23:04.153Z,3.20
2024-05-09T13:25:33.552Z,3.60
2024-05-09T13:28:00.525Z,3.00
2024-05-09T13:30:35.666Z,5.60
2024-05-09T13:33:08.049Z,3.10
2024-05-09T13:35:35.959Z,2.70
2024-05-09T13:38:04.454Z,2.90
2024-05-09T13:40:34.707Z,2.90
2024-05-09T13:43:04.363Z,4.00
2024-05-09T13:45:32.190Z,2.50
2024-05-09T13:47:59.373Z,1.90
2024-05-09T13:50:33.639Z,2.30
2024-05-09T13:53:04.340Z,3.50
2024-05-09T13:55:31.198Z,2.80
2024-05-09T13:57:58.138Z,4.00
2024-05-09T14:02:54.978Z,4.30
2024-05-09T14:05:22.182Z,3.00
2024-05-09T14:07:49.231Z,5.60
2024-05-09T14:10:23.203Z,4.40
2024-05-09T14:12:55.612Z,4.30
2024-05-09T14:15:22.486Z,3.70
2024-05-09T14:17:49.421Z,3.40
2024-05-09T14:20:27.223Z,3.10
2024-05-09T14:22:57.866Z,3.80
2024-05-09T14:25:27.722Z,3.40
2024-05-09T14:27:55.435Z,4.30
2024-05-09T14:30:30.274Z,3.00
2024-05-09T14:33:03.590Z,3.40
2024-05-09T14:35:30.648Z,2.80
2024-05-09T14:37:58.117Z,3.20
2024-05-09T14:40:36.465Z,2.60
2024-05-09T14:43:10.452Z,3.80
2024-05-09T14:45:37.854Z,4.90
2024-05-09T14:48:05.934Z,3.00
2024-05-09T14:50:37.364Z,3.90
2024-05-09T14:53:10.860Z,3.80
2024-05-09T14:55:40.605Z,3.80
2024-05-09T14:58:09.767Z,4.50
2024-05-09T15:00:45.959Z,3.00
2024-05-09T15:03:17.821Z,3.20
2024-05-09T15:05:46.008Z,3.20
2024-05-09T15:08:12.816Z,2.20
2024-05-09T15:10:39.768Z,3.50
2024-05-09T15:13:09.020Z,2.80
2024-05-09T15:15:37.705Z,4.50
2024-05-09T15:18:05.416Z,2.50
2024-05-09T15:20:36.110Z,3.20
2024-05-09T15:23:04.928Z,4.10
2024-05-09T15:25:33.243Z,3.80
2024-05-09T15:28:00.211Z,3.20
2024-05-09T15:30:31.501Z,3.10
2024-05-09T15:33:04.551Z,2.30
2024-05-09T15:35:32.675Z,5.20
2024-05-09T15:38:01.919Z,2.50
2024-05-09T15:40:36.036Z,4.80
2024-05-09T15:43:08.162Z,2.20
2024-05-09T15:45:35.971Z,3.70
2024-05-09T15:48:04.226Z,2.40
2024-05-09T15:50:37.857Z,3.20
2024-05-09T15:53:12.602Z,4.40
2024-05-09T15:55:40.897Z,3.70
2024-05-09T15:58:08.054Z,3.50
2024-05-09T16:00:39.391Z,3.60
2024-05-09T16:03:10.380Z,5.00
2024-05-09T16:05:38.044Z,4.20
2024-05-09T16:08:06.594Z,2.70
2024-05-09T16:10:34.877Z,3.00
2024-05-09T16:13:03.331Z,2.40
2024-05-09T16:15:31.065Z,2.50
2024-05-09T16:17:58.573Z,2.70
2024-05-09T16:20:34.335Z,2.90
2024-05-09T16:23:06.997Z,3.70
2024-05-09T16:25:33.846Z,2.70
2024-05-09T16:28:00.904Z,1.80
2024-05-09T16:30:34.142Z,3.90
2024-05-09T16:33:04.060Z,3.80
2024-05-09T16:35:32.251Z,1.90
2024-05-09T16:38:01.777Z,4.00
2024-05-09T16:40:36.354Z,3.30
2024-05-09T16:43:07.991Z,4.70
2024-05-09T16:45:36.120Z,5.60
2024-05-09T16:48:03.433Z,3.70
2024-05-09T16:50:33.480Z,4.50
2024-05-09T16:53:03.257Z,4.40
2024-05-09T16:55:30.507Z,3.00
2024-05-09T16:57:57.607Z,3.80
2024-05-09T17:00:35.664Z,5.00
2024-05-09T17:03:08.871Z,5.70
2024-05-09T17:05:36.440Z,6.00
2024-05-09T17:08:04.435Z,3.90
2024-05-09T17:10:33.897Z,4.10
2024-05-09T17:13:04.299Z,4.10
2024-05-09T17:15:32.498Z,4.20
2024-05-09T17:18:00.495Z,2.60
2024-05-09T17:20:33.104Z,3.30
2024-05-09T17:23:03.748Z,2.90
2024-05-09T17:25:30.780Z,3.80
2024-05-09T17:28:04.313Z,3.50
2024-05-09T17:30:35.499Z,2.90
2024-05-09T17:33:05.790Z,3.60
2024-05-09T17:35:32.759Z,4.70
2024-05-09T17:38:00.841Z,4.50
2024-05-09T17:40:33.234Z,3.00
2024-05-09T17:43:04.182Z,3.80
2024-05-09T17:45:32.073Z,5.60
2024-05-09T17:47:59.617Z,3.20
2024-05-09T17:50:34.172Z,4.80
2024-05-09T17:53:04.447Z,5.00
2024-05-09T17:55:31.508Z,2.90
2024-05-09T17:57:58.555Z,3.70
2024-05-09T18:00:36.390Z,3.50
2024-05-09T18:03:07.397Z,3.40
2024-05-09T18:05:35.576Z,4.40
2024-05-09T18:08:03.392Z,2.60
2024-05-09T18:10:36.041Z,2.60
2024-05-09T18:13:07.527Z,2.70
2024-05-09T18:15:34.517Z,3.20
2024-05-09T18:18:03.079Z,3.30
2024-05-09T18:20:39.872Z,3.40
2024-05-09T18:23:12.414Z,4.10
2024-05-09T18:25:39.255Z,3.00
2024-05-09T18:28:06.643Z,3.60
2024-05-09T18:30:35.916Z,4.00
2024-05-09T18:33:09.402Z,2.80
2024-05-09T18:35:36.910Z,4.50
2024-05-09T18:38:04.305Z,5.20
2024-05-09T18:40:35.040Z,3.80
2024-05-09T18:43:06.664Z,4.30
2024-05-09T18:45:36.686Z,4.80
2024-05-09T18:48:04.440Z,4.20
2024-05-09T18:50:35.847Z,5.20
2024-05-09T18:53:05.875Z,4.70
2024-05-09T18:55:32.848Z,4.60
2024-05-09T18:57:59.957Z,5.00
2024-05-09T19:00:34.017Z,4.10
2024-05-09T19:03:07.515Z,4.70
2024-05-09T19:05:35.322Z,6.20
2024-05-09T19:08:03.157Z,5.10
2024-05-09T19:10:34.310Z,5.00
2024-05-09T19:13:07.285Z,6.00
2024-05-09T19:15:38.786Z,5.70
2024-05-09T19:18:06.478Z,3.80
2024-05-09T19:20:35.369Z,4.80
2024-05-09T19:23:04.919Z,5.50
2024-05-09T19:25:32.577Z,5.30
2024-05-09T19:28:00.030Z,4.30
2024-05-09T19:30:36.428Z,5.20
2024-05-09T19:33:09.075Z,5.90
2024-05-09T19:35:36.610Z,5.00
2024-05-09T19:38:04.367Z,5.70
2024-05-09T19:40:33.404Z,7.40
2024-05-09T19:43:02.687Z,7.30
2024-05-09T19:45:31.907Z,7.10
2024-05-09T19:47:59.136Z,5.90
2024-05-09T19:50:36.165Z,5.90
2024-05-09T19:53:08.892Z,5.50
2024-05-09T19:55:35.801Z,5.80
2024-05-09T19:58:05.278Z,12.10
2024-05-09T20:00:36.387Z,5.90
2024-05-09T20:05:32.616Z,7.00
2024-05-09T20:07:59.682Z,6.20
2024-05-09T20:10:31.671Z,6.70
2024-05-09T20:13:00.909Z,7.10
2024-05-09T20:15:27.872Z,6.80
2024-05-09T20:17:54.813Z,8.40
2024-05-09T20:22:52.000Z,6.30
2024-05-09T20:25:18.746Z,9.50
2024-05-09T20:27:45.612Z,11.60
2024-05-09T20:30:17.031Z,7.10
2024-05-09T20:32:48.300Z,8.60
2024-05-09T20:35:16.192Z,7.70
2024-05-09T20:37:43.019Z,8.80
2024-05-09T20:40:18.140Z,6.50
2024-05-09T20:42:51.683Z,8.20
2024-05-09T20:45:18.526Z,6.80
2024-05-09T20:47:45.382Z,6.40
2024-05-09T20:50:23.042Z,8.40
2024-05-09T20:52:55.491Z,7.10
2024-05-09T20:55:22.389Z,7.10
2024-05-09T20:57:49.210Z,7.10
2024-05-09T21:00:19.188Z,8.60
2024-05-09T21:02:52.234Z,13.80
2024-05-09T21:05:19.336Z,8.60
2024-05-09T21:07:46.380Z,8.40
2024-05-09T21:10:19.352Z,10.20
2024-05-09T21:12:49.332Z,8.60
2024-05-09T21:15:16.135Z,8.00
2024-05-09T21:17:43.134Z,7.40
2024-05-09T21:20:16.901Z,6.20
2024-05-09T21:22:46.991Z,7.00
2024-05-09T21:25:13.892Z,7.50
2024-05-09T21:27:40.985Z,16.00
2024-05-09T21:30:13.220Z,10.80
2024-05-09T21:32:45.896Z,7.10
2024-05-09T21:35:12.781Z,10.10
2024-05-09T21:37:39.592Z,8.50
2024-05-09T21:40:11.427Z,7.80
2024-05-09T21:42:40.819Z,8.90
2024-05-09T21:45:07.754Z,15.60
2024-05-09T21:47:34.704Z,6.30
2024-05-09T21:50:01.966Z,8.70
2024-05-09T21:52:28.758Z,7.90
2024-05-09T21:54:55.739Z,9.50
2024-05-09T21:57:22.684Z,8.50
2024-05-09T21:59:49.512Z,8.90
2024-05-09T22:02:16.350Z,7.00
2024-05-09T22:04:43.393Z,8.20
2024-05-09T22:07:10.309Z,7.90
2024-05-09T22:09:39.506Z,10.00
2024-05-09T22:12:06.509Z,10.40
2024-05-09T22:14:33.353Z,8.00
2024-05-09T22:17:00.166Z,8.60
2024-05-09T22:19:28.998Z,9.60
2024-05-09T22:21:56.051Z,8.00
2024-05-09T22:24:22.916Z,6.80
2024-05-09T22:26:51.467Z,9.50
2024-05-09T22:29:18.287Z,10.00
2024-05-09T22:31:45.100Z,8.60
2024-05-09T22:34:11.934Z,8.90
2024-05-09T22:36:38.914Z,9.20
2024-05-09T22:39:05.981Z,10.40
2024-05-09T22:41:32.731Z,10.20
2024-05-09T22:44:01.212Z,9.20
2024-05-09T22:46:28.135Z,10.90
2024-05-09T22:48:55.023Z,10.80
2024-05-09T22:51:21.953Z,9.40
2024-05-09T22:53:48.765Z,10.40
2024-05-09T22:56:25.729Z,12.70
2024-05-09T22:58:52.451Z,9.30
2024-05-09T23:01:19.275Z,8.60
2024-05-09T23:03:46.768Z,10.00
2024-05-09T23:06:14.324Z,10.90
2024-05-09T23:08:41.101Z,13.70
2024-05-09T23:11:09.149Z,9.80
2024-05-09T23:13:36.369Z,8.70
2024-05-09T23:16:03.453Z,8.80
2024-05-09T23:18:30.309Z,9.80
2024-05-09T23:20:59.175Z,10.30
2024-05-09T23:23:25.934Z,11.80
2024-05-09T23:25:52.649Z,7.20
2024-05-09T23:28:19.551Z,10.60
2024-05-09T23:30:46.442Z,8.90
2024-05-09T23:33:14.191Z,8.80
2024-05-09T23:35:42.967Z,9.80
2024-05-09T23:38:09.711Z,7.80
2024-05-09T23:40:39.803Z,8.90
2024-05-09T23:43:09.909Z,8.20
2024-05-09T23:45:37.414Z,7.50
2024-05-09T23:48:05.583Z,7.90
2024-05-09T23:50:36.262Z,7.90
2024-05-09T23:53:05.843Z,9.80
2024-05-09T23:55:33.118Z,8.40
2024-05-09T23:58:00.248Z,8.70
